createdAt,value
2022-12-08T00:04:13.355Z,95320.98
2022-12-08T00:07:42.335Z,95318.14
2022-12-08T00:13:17.738Z,95314.95
2022-12-08T00:16:06.344Z,95312.77
2022-12-08T00:21:41.359Z,95312.19
2022-12-08T00:24:34.545Z,95315.49
2022-12-08T00:27:23.193Z,95308.80
2022-12-08T00:30:13.045Z,95308.64
2022-12-08T00:33:01.450Z,95309.88
2022-12-08T00:38:35.877Z,95294.86
2022-12-08T00:44:18.694Z,95296.61
2022-12-08T00:49:55.881Z,95287.59
2022-12-08T00:52:44.309Z,95289.81
2022-12-08T00:58:14.118Z,95293.42
2022-12-08T01:01:03.609Z,95293.00
2022-12-08T01:09:19.458Z,95285.98
2022-12-08T01:12:09.281Z,95287.53
2022-12-08T01:17:38.628Z,95282.45
2022-12-08T01:20:27.039Z,95291.91
2022-12-08T01:26:04.889Z,95293.00
2022-12-08T01:28:53.365Z,95290.48
2022-12-08T01:34:32.226Z,95294.50
2022-12-08T01:37:21.489Z,95289.14
2022-12-08T01:40:11.701Z,95282.80
2022-12-08T01:45:46.865Z,95278.06
2022-12-08T01:48:35.240Z,95283.08
2022-12-08T01:54:12.733Z,95282.22
2022-12-08T01:59:50.789Z,95276.13
2022-12-08T02:02:43.002Z,95271.95
2022-12-08T02:11:01.312Z,95266.70
2022-12-08T02:16:42.093Z,95257.23
2022-12-08T02:20:13.219Z,95264.58
2022-12-08T02:26:00.303Z,95253.47
2022-12-08T02:32:01.746Z,95246.13
2022-12-08T02:37:40.145Z,95236.39
2022-12-08T02:43:15.540Z,95237.69
2022-12-08T02:48:51.017Z,95227.70
2022-12-08T02:54:21.240Z,95219.66
2022-12-08T03:00:08.674Z,95213.85
2022-12-08T03:05:58.063Z,95209.42
2022-12-08T03:11:40.478Z,95195.51
2022-12-08T03:14:30.024Z,95201.74
2022-12-08T03:20:12.863Z,95200.30
2022-12-08T03:25:55.720Z,95192.65
2022-12-08T03:28:45.100Z,95187.05
2022-12-08T03:34:24.517Z,95176.83
2022-12-08T03:37:13.160Z,95183.33
2022-12-08T03:42:48.373Z,95170.79
2022-12-08T03:48:18.377Z,95163.73
2022-12-08T03:51:07.027Z,95160.98
2022-12-08T03:56:57.660Z,95151.23
2022-12-08T03:59:46.093Z,95157.98
2022-12-08T04:05:14.009Z,95145.94
2022-12-08T04:10:48.256Z,95144.59
2022-12-08T04:16:20.213Z,95142.45
2022-12-08T04:21:56.924Z,95124.52
2022-12-08T04:24:45.533Z,95131.94
2022-12-08T04:30:21.515Z,95123.84
2022-12-08T04:35:53.131Z,95124.73
2022-12-08T04:41:49.278Z,95118.59
2022-12-08T04:47:27.189Z,95117.64
2022-12-08T04:50:17.875Z,95119.34
2022-12-08T04:55:57.493Z,95115.99
2022-12-08T04:58:46.368Z,95116.94
2022-12-08T05:01:34.636Z,95120.12
2022-12-08T05:04:22.717Z,95113.38
2022-12-08T05:07:11.112Z,95117.33
2022-12-08T05:12:48.343Z,95112.41
2022-12-08T05:18:20.225Z,95117.14
2022-12-08T05:23:53.133Z,95115.55
2022-12-08T05:26:41.501Z,95117.13
2022-12-08T05:32:17.302Z,95114.59
2022-12-08T05:38:07.757Z,95112.52
2022-12-08T05:43:44.193Z,95107.75
2022-12-08T05:49:32.777Z,95101.51
2022-12-08T05:55:08.401Z,95099.47
2022-12-08T05:57:56.587Z,95100.42
2022-12-08T06:00:45.304Z,95101.90
2022-12-08T06:06:13.841Z,95106.12
2022-12-08T06:09:05.338Z,95111.31
2022-12-08T06:14:39.734Z,95111.70
2022-12-08T06:20:17.556Z,95116.67
2022-12-08T06:25:53.443Z,95115.39
2022-12-08T06:28:42.633Z,95112.99
2022-12-08T06:34:16.720Z,95122.79
2022-12-08T06:39:51.739Z,95111.52
2022-12-08T06:45:30.212Z,95114.18
2022-12-08T06:51:12.192Z,95116.95
2022-12-08T06:54:00.793Z,95112.73
2022-12-08T06:56:49.202Z,95110.89
2022-12-08T07:02:26.767Z,95116.50
2022-12-08T07:08:03.129Z,95124.38
2022-12-08T07:13:40.743Z,95124.78
2022-12-08T07:16:29.165Z,95124.45
2022-12-08T07:19:20.438Z,95121.65
2022-12-08T07:24:59.506Z,95122.36
2022-12-08T07:27:47.682Z,95132.98
2022-12-08T07:30:35.848Z,95123.75
2022-12-08T07:33:24.689Z,95125.72
2022-12-08T07:36:13.441Z,95120.81
2022-12-08T07:41:45.779Z,95125.80
2022-12-08T07:47:15.821Z,95119.16
2022-12-08T07:52:54.868Z,95118.99
2022-12-08T07:58:25.628Z,95114.20
2022-12-08T08:01:22.952Z,95111.27
2022-12-08T08:07:00.190Z,95103.54
2022-12-08T08:12:36.677Z,95106.66
2022-12-08T08:18:14.326Z,95099.45
2022-12-08T08:26:26.541Z,95109.41
2022-12-08T08:31:56.340Z,95104.89
2022-12-08T08:37:48.773Z,95102.17
2022-12-08T08:43:35.986Z,95111.64
2022-12-08T08:46:22.138Z,95110.33
2022-12-08T08:51:56.564Z,95103.71
2022-12-08T08:57:29.067Z,95100.80
2022-12-08T09:03:21.495Z,95100.49
2022-12-08T09:08:51.235Z,95086.55
2022-12-08T09:14:25.856Z,95094.16
2022-12-08T09:17:14.672Z,95088.66
2022-12-08T09:20:03.499Z,95095.38
2022-12-08T09:22:52.205Z,95087.57
2022-12-08T09:28:28.205Z,95083.53
2022-12-08T09:34:04.638Z,95092.17
2022-12-08T09:36:52.707Z,95087.63
2022-12-08T09:39:41.344Z,95076.20
2022-12-08T09:45:22.739Z,95080.44
2022-12-08T09:51:15.408Z,95071.73
2022-12-08T09:56:58.807Z,95065.57
2022-12-08T10:02:42.979Z,95058.44
2022-12-08T10:08:22.773Z,95045.28
2022-12-08T10:14:04.777Z,95041.96
2022-12-08T10:19:37.846Z,95026.01
2022-12-08T10:28:14.974Z,95018.44
2022-12-08T10:36:50.465Z,95001.35
2022-12-08T10:39:42.870Z,94996.42
2022-12-08T10:42:35.243Z,94995.77
2022-12-08T10:48:19.654Z,94981.08
2022-12-08T10:56:55.312Z,94974.56
2022-12-08T10:59:45.895Z,94975.20
2022-12-08T11:05:20.036Z,94962.65
2022-12-08T11:17:10.476Z,94953.62
2022-12-08T11:22:47.118Z,94933.63
2022-12-08T11:28:16.366Z,94929.91
2022-12-08T11:33:47.840Z,94925.17
2022-12-08T11:39:28.210Z,94923.06
2022-12-08T11:45:13.386Z,94923.89
2022-12-08T11:50:59.693Z,94915.13
2022-12-08T11:53:54.144Z,94914.48
2022-12-08T11:59:46.900Z,94911.10
2022-12-08T12:06:09.321Z,94902.20
2022-12-08T12:11:43.375Z,94899.33
2022-12-08T12:17:33.618Z,94896.13
2022-12-08T12:26:19.653Z,94880.74
2022-12-08T12:29:11.432Z,94877.87
2022-12-08T12:34:50.887Z,94871.66
2022-12-08T12:43:34.128Z,94873.80
2022-12-08T12:46:43.900Z,94877.13
2022-12-08T12:52:48.543Z,94869.73
2022-12-08T12:58:43.848Z,94864.80
2022-12-08T13:04:58.921Z,94852.65
2022-12-08T13:13:26.125Z,94853.42
2022-12-08T13:19:02.411Z,94847.24
2022-12-08T13:21:51.174Z,94849.70
2022-12-08T13:24:41.020Z,94850.89
2022-12-08T13:30:46.933Z,94849.54
2022-12-08T13:36:23.692Z,94845.73
2022-12-08T13:42:07.060Z,94841.92
2022-12-08T13:48:21.727Z,94846.27
2022-12-08T13:59:35.288Z,94850.53
2022-12-08T14:05:34.830Z,94848.47
2022-12-08T14:10:39.719Z,94848.54
2022-12-08T14:13:32.259Z,94844.95
2022-12-08T14:19:17.246Z,94850.17
2022-12-08T14:24:50.148Z,94839.13
2022-12-08T14:30:26.732Z,94853.66
2022-12-08T14:36:10.584Z,94844.64
2022-12-08T14:42:05.695Z,94855.63
2022-12-08T14:47:52.610Z,94845.79
2022-12-08T14:53:39.463Z,94841.61
2022-12-08T14:59:18.989Z,94832.13
2022-12-08T15:05:11.976Z,94847.11
2022-12-08T15:08:03.853Z,94851.19
2022-12-08T15:13:55.171Z,94850.55
2022-12-08T15:19:56.998Z,94852.74
2022-12-08T15:25:29.411Z,94845.95
2022-12-08T15:28:24.001Z,94836.22
2022-12-08T15:31:12.661Z,94844.72
2022-12-08T15:36:53.956Z,94832.55
2022-12-08T15:45:11.192Z,94814.05
2022-12-08T15:50:41.635Z,94813.58
2022-12-08T15:53:30.325Z,94816.06
2022-12-08T15:59:06.090Z,94807.91
2022-12-08T16:05:18.320Z,94810.81
2022-12-08T16:10:45.511Z,94803.72
2022-12-08T16:19:20.425Z,94797.80
2022-12-08T16:25:14.748Z,94801.41
2022-12-08T16:28:05.262Z,94787.30
2022-12-08T16:33:28.004Z,94786.80
2022-12-08T16:39:00.010Z,94785.78
2022-12-08T16:47:21.226Z,94786.76
2022-12-08T16:52:48.340Z,94791.38
2022-12-08T16:55:39.214Z,94800.31
2022-12-08T17:01:18.933Z,94788.29
2022-12-08T17:04:30.483Z,94795.77
2022-12-08T17:09:45.025Z,94791.83
2022-12-08T17:15:19.350Z,94776.33
2022-12-08T17:20:51.872Z,94791.71
2022-12-08T17:26:25.229Z,94792.05
2022-12-08T17:31:59.983Z,94782.36
2022-12-08T17:37:35.132Z,94791.27
2022-12-08T17:40:28.155Z,94792.78
2022-12-08T17:43:16.365Z,94794.91
2022-12-08T17:48:49.159Z,94790.88
2022-12-08T17:51:39.272Z,94790.18
2022-12-08T17:57:12.100Z,94789.88
2022-12-08T18:02:39.479Z,94782.08
2022-12-08T18:08:33.104Z,94783.11
2022-12-08T18:14:10.181Z,94789.89
2022-12-08T18:19:40.073Z,94772.97
2022-12-08T18:25:19.456Z,94771.52
2022-12-08T18:30:51.242Z,94770.69
2022-12-08T18:36:56.124Z,94774.73
2022-12-08T18:39:46.410Z,94767.11
2022-12-08T18:45:23.210Z,94758.36
2022-12-08T18:48:13.695Z,94753.19
2022-12-08T18:51:03.904Z,94761.12
2022-12-08T18:56:43.627Z,94740.82
2022-12-08T19:02:21.209Z,94752.20
2022-12-08T19:05:11.762Z,94744.33
2022-12-08T19:08:03.463Z,94746.60
2022-12-08T19:10:53.468Z,94745.70
2022-12-08T19:19:39.593Z,94742.11
2022-12-08T19:22:29.530Z,94743.30
2022-12-08T19:25:32.762Z,94742.03
2022-12-08T19:31:07.953Z,94737.62
2022-12-08T19:36:44.424Z,94730.95
2022-12-08T19:40:02.181Z,94745.03
2022-12-08T19:45:38.964Z,94732.13
2022-12-08T19:48:32.340Z,94730.16
2022-12-08T19:54:59.045Z,94728.40
2022-12-08T19:57:50.547Z,94730.95
2022-12-08T20:03:38.544Z,94718.41
2022-12-08T20:09:10.710Z,94723.33
2022-12-08T20:14:49.764Z,94719.25
2022-12-08T20:20:24.829Z,94709.30
2022-12-08T20:26:23.438Z,94713.80
2022-12-08T20:34:35.245Z,94714.71
2022-12-08T20:44:09.810Z,94712.59
2022-12-08T20:46:58.591Z,94715.62
2022-12-08T20:52:58.547Z,94712.70
2022-12-08T20:58:41.789Z,94720.19
2022-12-08T21:04:24.075Z,94713.67
2022-12-08T21:07:17.826Z,94709.91
2022-12-08T21:10:08.679Z,94712.27
2022-12-08T21:15:47.171Z,94702.87
2022-12-08T21:21:18.548Z,94694.59
2022-12-08T21:24:10.640Z,94691.29
2022-12-08T21:29:45.268Z,94692.83
2022-12-08T21:35:25.213Z,94677.23
2022-12-08T21:38:13.718Z,94677.31
2022-12-08T21:41:05.130Z,94677.31
2022-12-08T21:46:43.807Z,94682.55
2022-12-08T21:52:56.569Z,94671.61
2022-12-08T21:58:26.389Z,94669.17
2022-12-08T22:04:09.217Z,94658.71
2022-12-08T22:09:50.377Z,94656.02
2022-12-08T22:19:19.982Z,94647.86
2022-12-08T23:08:37.306Z,94597.50
2022-12-08T23:11:28.879Z,94603.12
2022-12-08T23:17:04.573Z,94609.83
2022-12-08T23:22:40.553Z,94597.84
2022-12-08T23:28:25.325Z,94605.50
2022-12-08T23:33:59.948Z,94606.11
2022-12-08T23:36:48.677Z,94608.33
2022-12-08T23:45:05.480Z,94600.08
2022-12-08T23:50:39.584Z,94593.02
2022-12-08T23:56:17.406Z,94590.08
